KGGW/GGW METAR and TAF weather

Enter ICAO airport designator
Station Type Date Time Source
KGGW METAR 2019/07/15 19:53 UTC NOAA

KGGW 151953Z AUTO 31012G18KT 280V340 10SM CLR 28/10 A2996 RMK AO2 SLP134 T02830100


Station Type Date Time Source
KGGW Decoded METAR 2019/07/15 19:53 UTC NOAA

GLASGOW INTERNATIONAL AIRPORT , MT, United States (KGGW) 48-13N 106-37W 693M
Jul 15, 2019 - 03:53 PM EDT / 2019.07.15 1953 UTC
Wind: from the NW (310 degrees) at 14 MPH (12 KT) gusting to 21 MPH (18 KT) (direction variable):0
Visibility: 10 mile(s):0
Sky conditions: clear
Temperature: 82.9 F (28.3 C)
Dew Point: 50.0 F (10.0 C)
Relative Humidity: 31%
Pressure (altimeter): 29.96 in. Hg (1014 hPa)
ob: KGGW 151953Z AUTO 31012G18KT 280V340 10SM CLR 28/10 A2996 RMK AO2 SLP134 T02830100
cycle: 20

Station Type Date Time Source
KGGW TAF 2019/07/15 18:22 UTC NOAA

TAF KGGW 151720Z 1518/1618 32012G19KT P6SM SKC
FM160300 VRB06KT P6SM SCT150
FM161300 12007KT P6SM VCSH OVC100

Example: see airport list